createdAt,value
2018-11-11T00:00:24.719Z,993.92
2018-11-11T00:01:24.664Z,993.93
2018-11-11T00:02:24.612Z,993.88
2018-11-11T00:03:24.564Z,993.86
2018-11-11T00:04:24.558Z,993.86
2018-11-11T00:05:24.461Z,993.85
2018-11-11T00:06:24.410Z,993.84
2018-11-11T00:07:24.360Z,993.83
2018-11-11T00:08:24.309Z,993.83
2018-11-11T00:09:24.256Z,993.87
2018-11-11T00:10:24.230Z,993.85
2018-11-11T00:11:24.153Z,993.88
2018-11-11T00:12:24.100Z,993.86
2018-11-11T00:13:24.062Z,993.85
2018-11-11T00:14:24.005Z,993.88
2018-11-11T00:15:23.974Z,993.84
2018-11-11T00:16:23.902Z,993.87
2018-11-11T00:17:23.849Z,993.87
2018-11-11T00:18:23.796Z,993.90
2018-11-11T00:19:23.747Z,993.90
2018-11-11T00:20:23.717Z,993.91
2018-11-11T00:21:23.643Z,993.91
2018-11-11T00:22:23.595Z,993.94
2018-11-11T00:23:23.545Z,993.94
2018-11-11T00:24:23.493Z,993.92
2018-11-11T00:25:23.468Z,993.91
2018-11-11T00:26:23.389Z,993.91
2018-11-11T00:27:23.341Z,993.90
2018-11-11T00:28:23.305Z,993.87
2018-11-11T00:29:23.237Z,993.88
2018-11-11T00:30:23.208Z,993.89
2018-11-11T00:31:23.132Z,993.91
2018-11-11T00:32:23.088Z,993.90
2018-11-11T00:33:23.035Z,993.94
2018-11-11T00:34:22.982Z,993.93
2018-11-11T00:35:22.956Z,993.93
2018-11-11T00:36:22.885Z,993.93
2018-11-11T00:37:22.828Z,993.92
2018-11-11T00:38:22.779Z,993.89
2018-11-11T00:39:22.783Z,993.86
2018-11-11T00:40:22.701Z,993.87
2018-11-11T00:41:22.634Z,993.84
2018-11-11T00:42:22.580Z,993.87
2018-11-11T00:43:22.525Z,993.85
2018-11-11T00:44:22.475Z,993.84
2018-11-11T00:45:22.446Z,993.83
2018-11-11T00:46:22.374Z,993.80
2018-11-11T00:47:22.320Z,993.79
2018-11-11T00:48:22.274Z,993.74
2018-11-11T00:49:22.222Z,993.77
2018-11-11T00:50:22.212Z,993.71
2018-11-11T00:51:22.119Z,993.69
2018-11-11T00:52:22.073Z,993.64
2018-11-11T00:53:22.016Z,993.61
2018-11-11T00:54:21.960Z,993.61
2018-11-11T00:55:21.913Z,993.64
2018-11-11T00:56:21.897Z,993.60
2018-11-11T00:57:21.812Z,993.58
2018-11-11T00:58:21.761Z,993.54
2018-11-11T00:59:21.717Z,993.54
2018-11-11T01:00:21.663Z,993.54
2018-11-11T01:01:21.634Z,993.57
2018-11-11T01:02:21.564Z,993.57
2018-11-11T01:03:21.514Z,993.58
2018-11-11T01:04:21.457Z,993.56
2018-11-11T01:05:21.408Z,993.56
2018-11-11T01:06:21.376Z,993.58
2018-11-11T01:07:21.305Z,993.60
2018-11-11T01:08:21.256Z,993.60
2018-11-11T01:09:21.207Z,993.62
2018-11-11T01:10:21.156Z,993.64
2018-11-11T01:11:21.130Z,993.65
2018-11-11T01:12:21.113Z,993.70
2018-11-11T01:13:21.004Z,993.71
2018-11-11T01:14:20.946Z,993.76
2018-11-11T01:15:20.903Z,993.78
2018-11-11T01:16:20.868Z,993.77
2018-11-11T01:17:20.797Z,993.78
2018-11-11T01:18:20.751Z,993.78
2018-11-11T01:19:20.696Z,993.76
2018-11-11T01:20:20.647Z,993.82
2018-11-11T01:21:20.620Z,993.81
2018-11-11T01:22:20.545Z,993.86
2018-11-11T01:23:20.488Z,993.88
2018-11-11T01:24:20.441Z,993.82
2018-11-11T01:25:20.397Z,993.79
2018-11-11T01:26:20.360Z,993.75
2018-11-11T01:27:20.286Z,993.76
2018-11-11T01:28:20.246Z,993.84
2018-11-11T01:29:20.191Z,993.76
2018-11-11T01:30:20.134Z,993.70
2018-11-11T01:31:20.122Z,993.72
2018-11-11T01:32:20.039Z,993.71
2018-11-11T01:33:20.000Z,993.71
2018-11-11T01:34:19.930Z,993.70
2018-11-11T01:35:19.876Z,993.68
2018-11-11T01:36:19.832Z,993.66
2018-11-11T01:37:19.807Z,993.65
2018-11-11T01:38:19.727Z,993.62
2018-11-11T01:39:19.687Z,993.63
2018-11-11T01:40:19.630Z,993.64
2018-11-11T01:41:19.577Z,993.62
2018-11-11T01:42:26.691Z,993.60
2018-11-11T01:43:19.476Z,993.64
2018-11-11T01:44:19.427Z,993.62
2018-11-11T01:45:19.373Z,993.62
2018-11-11T01:46:19.324Z,993.65
2018-11-11T01:47:19.305Z,993.65
2018-11-11T01:48:19.221Z,993.68
2018-11-11T01:49:19.167Z,993.69
2018-11-11T01:50:19.114Z,993.70
2018-11-11T01:51:19.067Z,993.74
2018-11-11T01:52:19.036Z,993.71
2018-11-11T01:53:27.787Z,993.66
2018-11-11T01:54:18.916Z,993.69
2018-11-11T01:55:18.859Z,993.71
2018-11-11T01:56:18.812Z,993.72
2018-11-11T01:57:18.781Z,993.76
2018-11-11T01:58:18.713Z,993.79
2018-11-11T01:59:18.655Z,993.85
2018-11-11T02:00:18.609Z,993.84
2018-11-11T02:01:18.552Z,993.82
2018-11-11T02:02:18.527Z,993.83
2018-11-11T02:03:18.463Z,993.82
2018-11-11T02:04:18.401Z,993.83
2018-11-11T02:05:18.349Z,993.80
2018-11-11T02:06:18.297Z,993.77
2018-11-11T02:07:18.271Z,993.83
2018-11-11T02:08:18.194Z,993.82
2018-11-11T02:09:18.147Z,993.87
2018-11-11T02:10:18.093Z,993.84
2018-11-11T02:11:18.043Z,993.90
2018-11-11T02:12:18.016Z,993.88
2018-11-11T02:13:17.941Z,993.89
2018-11-11T02:14:17.891Z,993.87
2018-11-11T02:15:17.838Z,993.89
2018-11-11T02:16:17.786Z,993.86
2018-11-11T02:17:17.760Z,993.85
2018-11-11T02:18:17.686Z,993.89
2018-11-11T02:19:17.632Z,993.85
2018-11-11T02:20:17.585Z,993.87
2018-11-11T02:21:17.610Z,993.83
2018-11-11T02:22:17.520Z,993.91
2018-11-11T02:23:17.429Z,993.91
2018-11-11T02:24:17.388Z,993.99
2018-11-11T02:25:17.331Z,994.01
2018-11-11T02:26:17.278Z,994.06
2018-11-11T02:27:17.223Z,994.05
2018-11-11T02:28:17.198Z,994.05
2018-11-11T02:29:17.121Z,994.04
2018-11-11T02:30:17.070Z,994.06
2018-11-11T02:31:17.020Z,994.04
2018-11-11T02:32:16.970Z,994.08
2018-11-11T02:33:16.945Z,994.03
2018-11-11T02:34:16.873Z,994.06
2018-11-11T02:35:16.815Z,994.04
2018-11-11T02:36:16.763Z,994.06
2018-11-11T02:37:16.725Z,994.10
2018-11-11T02:38:16.700Z,994.10
2018-11-11T02:39:16.612Z,994.10
2018-11-11T02:40:16.557Z,994.06
2018-11-11T02:41:16.506Z,994.01
2018-11-11T02:42:16.455Z,994.03
2018-11-11T02:43:16.446Z,993.98
2018-11-11T02:44:16.351Z,993.95
2018-11-11T02:45:16.312Z,993.84
2018-11-11T02:46:16.252Z,993.81
2018-11-11T02:47:16.201Z,993.78
2018-11-11T02:48:16.170Z,993.78
2018-11-11T02:49:16.101Z,993.85
2018-11-11T02:50:16.051Z,993.83
2018-11-11T02:51:15.997Z,993.89
2018-11-11T02:52:15.945Z,993.89
2018-11-11T02:53:15.917Z,993.87
2018-11-11T02:54:15.845Z,993.88
2018-11-11T02:55:15.791Z,993.88
2018-11-11T02:56:15.744Z,993.83
2018-11-11T02:57:15.690Z,993.78
2018-11-11T02:58:15.667Z,993.81
2018-11-11T02:59:15.586Z,993.85
2018-11-11T03:00:15.539Z,993.89
2018-11-11T03:01:15.513Z,993.83
2018-11-11T03:02:15.433Z,993.82
2018-11-11T03:03:15.415Z,993.81
2018-11-11T03:04:15.384Z,993.77
2018-11-11T03:05:15.280Z,993.76
2018-11-11T03:06:15.228Z,993.83
2018-11-11T03:07:15.179Z,993.81
2018-11-11T03:08:15.157Z,993.80
2018-11-11T03:09:15.077Z,993.85
2018-11-11T03:10:15.023Z,993.76
2018-11-11T03:11:14.978Z,993.79
2018-11-11T03:12:14.923Z,993.80
2018-11-11T03:13:14.918Z,993.74
2018-11-11T03:14:14.822Z,993.68
2018-11-11T03:15:14.766Z,993.70
2018-11-11T03:16:14.729Z,993.70
2018-11-11T03:17:14.668Z,993.67
2018-11-11T03:18:14.614Z,993.63
2018-11-11T03:19:14.593Z,993.68
2018-11-11T03:20:14.525Z,993.68
2018-11-11T03:21:14.464Z,993.66
2018-11-11T03:22:14.410Z,993.69
2018-11-11T03:23:14.356Z,993.74
2018-11-11T03:24:14.333Z,993.74
2018-11-11T03:25:14.259Z,993.75
2018-11-11T03:26:14.207Z,993.76
2018-11-11T03:27:14.151Z,993.76
2018-11-11T03:28:14.122Z,993.70
2018-11-11T03:29:14.077Z,993.72
2018-11-11T03:30:14.010Z,993.73
2018-11-11T03:31:13.977Z,993.75
2018-11-11T03:32:13.900Z,993.78
2018-11-11T03:33:13.849Z,993.78
2018-11-11T03:34:13.821Z,993.81
2018-11-11T03:35:13.745Z,993.86
2018-11-11T03:36:13.696Z,993.87
2018-11-11T03:37:13.640Z,993.86
2018-11-11T03:38:13.592Z,993.85
2018-11-11T03:39:13.566Z,993.81
2018-11-11T03:40:13.489Z,993.81
2018-11-11T03:41:13.440Z,993.86
2018-11-11T03:42:13.387Z,993.87
2018-11-11T03:43:13.337Z,993.87
2018-11-11T03:44:13.310Z,993.85
2018-11-11T03:45:13.236Z,993.89
2018-11-11T03:46:13.186Z,993.87
2018-11-11T03:47:13.131Z,993.85
2018-11-11T03:48:13.079Z,993.83
2018-11-11T03:49:13.049Z,993.85
2018-11-11T03:50:12.976Z,993.85
2018-11-11T03:51:12.934Z,993.86
2018-11-11T03:52:12.872Z,993.87
2018-11-11T03:53:12.822Z,993.85
2018-11-11T03:54:12.797Z,993.83
2018-11-11T03:55:12.716Z,993.83
2018-11-11T03:56:12.668Z,993.78
2018-11-11T03:57:12.617Z,993.82
2018-11-11T03:58:12.568Z,993.80
2018-11-11T03:59:12.552Z,993.75
2018-11-11T04:00:12.464Z,993.81
2018-11-11T04:01:12.425Z,993.78
2018-11-11T04:02:12.368Z,993.85
2018-11-11T04:03:12.311Z,993.81
2018-11-11T04:04:12.256Z,993.80
2018-11-11T04:05:12.243Z,993.85
2018-11-11T04:06:12.158Z,993.84
2018-11-11T04:07:12.104Z,993.81
2018-11-11T04:08:12.052Z,993.82
2018-11-11T04:09:12.055Z,993.77
2018-11-11T04:10:12.036Z,993.80
2018-11-11T04:11:11.897Z,993.82
2018-11-11T04:12:11.845Z,993.82
2018-11-11T04:13:11.795Z,993.85
2018-11-11T04:14:11.742Z,993.79
2018-11-11T04:15:11.713Z,993.83
2018-11-11T04:16:11.672Z,993.87
2018-11-11T04:17:11.592Z,993.88
2018-11-11T04:18:11.535Z,993.92
2018-11-11T04:19:11.487Z,993.98
2018-11-11T04:20:11.457Z,993.97
2018-11-11T04:21:11.382Z,993.89
2018-11-11T04:22:11.343Z,993.87
2018-11-11T04:23:11.280Z,993.83
2018-11-11T04:24:11.237Z,993.77
2018-11-11T04:25:11.220Z,993.83
2018-11-11T04:26:11.123Z,993.80
2018-11-11T04:27:11.074Z,993.84
2018-11-11T04:28:11.025Z,993.87
2018-11-11T04:29:10.974Z,993.85
2018-11-11T04:30:10.944Z,993.88
2018-11-11T04:31:10.868Z,993.88
2018-11-11T04:32:10.822Z,993.89
2018-11-11T04:33:10.763Z,993.82
2018-11-11T04:34:10.714Z,993.84
2018-11-11T04:35:10.687Z,993.79
2018-11-11T04:36:10.615Z,993.77
2018-11-11T04:37:10.562Z,993.78
2018-11-11T04:38:10.510Z,993.76
2018-11-11T04:39:10.468Z,993.80
2018-11-11T04:40:10.431Z,993.77
2018-11-11T04:41:10.352Z,993.86
2018-11-11T04:42:10.302Z,993.80
2018-11-11T04:43:10.247Z,993.80
2018-11-11T04:44:10.195Z,993.76
2018-11-11T04:45:10.172Z,993.81
2018-11-11T04:46:10.158Z,993.85
2018-11-11T04:47:10.048Z,993.86
2018-11-11T04:48:09.994Z,993.86
2018-11-11T04:49:09.944Z,993.89
2018-11-11T04:50:09.925Z,993.89
2018-11-11T04:51:09.839Z,993.91
2018-11-11T04:52:09.789Z,993.95
2018-11-11T04:53:09.741Z,993.95
2018-11-11T04:54:09.683Z,993.98
2018-11-11T04:55:09.658Z,994.06
2018-11-11T04:56:09.581Z,994.01
2018-11-11T04:57:09.529Z,994.05
2018-11-11T04:58:09.496Z,994.03
2018-11-11T04:59:09.433Z,994.04
2018-11-11T05:00:09.413Z,994.06
2018-11-11T05:01:09.326Z,994.05
2018-11-11T05:02:09.281Z,994.03
2018-11-11T05:04:09.168Z,994.04
2018-11-11T05:05:09.161Z,994.06
2018-11-11T05:06:09.070Z,994.05
2018-11-11T05:07:09.034Z,994.04
2018-11-11T05:08:08.965Z,994.03
2018-11-11T05:09:08.914Z,994.05
2018-11-11T05:10:08.862Z,994.05
2018-11-11T05:11:08.838Z,994.02
2018-11-11T05:12:08.758Z,994.05
2018-11-11T05:13:08.710Z,993.98
2018-11-11T05:14:08.659Z,993.98
2018-11-11T05:15:08.602Z,993.95
2018-11-11T05:16:08.577Z,994.00
2018-11-11T05:17:08.506Z,994.00
2018-11-11T05:18:08.451Z,994.02
2018-11-11T05:19:08.398Z,994.06
2018-11-11T05:20:08.352Z,994.09
2018-11-11T05:21:08.320Z,994.09
2018-11-11T05:22:08.246Z,994.16
2018-11-11T05:23:08.192Z,994.10
2018-11-11T05:24:08.146Z,994.11
2018-11-11T05:25:08.091Z,994.09
2018-11-11T05:26:08.065Z,994.11
2018-11-11T05:27:07.992Z,994.08
2018-11-11T05:28:07.945Z,994.10
2018-11-11T05:29:07.887Z,994.08
2018-11-11T05:30:07.833Z,994.07
2018-11-11T05:31:07.819Z,994.05
2018-11-11T05:32:07.745Z,994.04
2018-11-11T05:33:07.680Z,994.03
2018-11-11T05:34:07.630Z,994.02
2018-11-11T05:35:07.580Z,994.02
2018-11-11T05:36:07.555Z,994.00
2018-11-11T05:37:07.477Z,994.03
2018-11-11T05:38:07.422Z,994.02
2018-11-11T05:39:07.375Z,994.06
2018-11-11T05:40:07.321Z,994.03
2018-11-11T05:41:07.296Z,994.09
2018-11-11T05:42:07.215Z,994.11
2018-11-11T05:43:07.162Z,994.12
2018-11-11T05:44:07.117Z,994.08
2018-11-11T05:45:07.065Z,994.05
2018-11-11T05:46:07.039Z,994.04
2018-11-11T05:47:06.963Z,994.03
2018-11-11T05:48:06.911Z,994.02
2018-11-11T05:49:06.858Z,994.00
2018-11-11T05:50:06.810Z,994.05
2018-11-11T05:51:06.788Z,994.00
2018-11-11T05:52:06.704Z,994.06
2018-11-11T05:53:06.654Z,994.08
2018-11-11T05:54:06.605Z,994.09
2018-11-11T05:55:06.552Z,994.11
2018-11-11T05:56:06.520Z,994.17
2018-11-11T05:57:06.451Z,994.22
2018-11-11T05:58:06.402Z,994.21
2018-11-11T05:59:06.348Z,994.21
2018-11-11T06:00:06.307Z,994.22
2018-11-11T06:01:06.270Z,994.22
2018-11-11T06:02:06.193Z,994.23
2018-11-11T06:03:06.138Z,994.27
2018-11-11T06:04:06.086Z,994.26
2018-11-11T06:05:06.040Z,994.30
2018-11-11T06:06:06.011Z,994.34
2018-11-11T06:07:05.940Z,994.33
2018-11-11T06:08:05.886Z,994.30
2018-11-11T06:09:05.837Z,994.30
2018-11-11T06:10:05.782Z,994.34
2018-11-11T06:11:05.750Z,994.33
2018-11-11T06:12:05.680Z,994.35
2018-11-11T06:13:05.629Z,994.32
2018-11-11T06:14:05.573Z,994.31
2018-11-11T06:15:05.527Z,994.31
2018-11-11T06:16:05.500Z,994.36
2018-11-11T06:17:05.421Z,994.31
2018-11-11T06:18:05.371Z,994.34
2018-11-11T06:19:05.321Z,994.31
2018-11-11T06:20:05.267Z,994.32
2018-11-11T06:21:05.240Z,994.32
2018-11-11T06:22:05.170Z,994.36
2018-11-11T06:23:05.117Z,994.41
2018-11-11T06:24:05.064Z,994.34
2018-11-11T06:25:05.014Z,994.35
2018-11-11T06:26:04.985Z,994.39
2018-11-11T06:27:04.910Z,994.39
2018-11-11T06:28:04.862Z,994.36
2018-11-11T06:29:04.810Z,994.42
2018-11-11T06:30:04.759Z,994.41
2018-11-11T06:31:04.728Z,994.39
2018-11-11T06:32:04.653Z,994.38
2018-11-11T06:33:04.601Z,994.37
2018-11-11T06:34:04.609Z,994.41
2018-11-11T06:35:11.671Z,994.41
2018-11-11T06:36:04.479Z,994.42
2018-11-11T06:37:04.402Z,994.47
2018-11-11T06:38:04.348Z,994.46
2018-11-11T06:39:04.297Z,994.41
2018-11-11T06:40:04.243Z,994.40
2018-11-11T06:41:04.197Z,994.46
2018-11-11T06:42:04.176Z,994.48
2018-11-11T06:43:04.089Z,994.51
2018-11-11T06:44:04.042Z,994.56
2018-11-11T06:45:03.988Z,994.52
2018-11-11T06:46:03.935Z,994.50
2018-11-11T06:47:03.928Z,994.46
2018-11-11T06:48:03.898Z,994.42
2018-11-11T06:49:03.786Z,994.48
2018-11-11T06:50:03.734Z,994.46
2018-11-11T06:51:03.681Z,994.50
2018-11-11T06:52:03.654Z,994.50
2018-11-11T06:53:03.576Z,994.48
2018-11-11T06:54:03.528Z,994.51
2018-11-11T06:55:03.479Z,994.48
2018-11-11T06:56:03.433Z,994.50
2018-11-11T06:57:03.401Z,994.44
2018-11-11T06:58:03.403Z,994.46
2018-11-11T06:59:03.272Z,994.44
2018-11-11T07:00:03.219Z,994.42
2018-11-11T07:01:03.169Z,994.41
2018-11-11T07:02:03.142Z,994.45
2018-11-11T07:03:03.068Z,994.50
2018-11-11T07:04:03.018Z,994.52
2018-11-11T07:05:02.974Z,994.51
2018-11-11T07:06:02.910Z,994.51
2018-11-11T07:07:02.886Z,994.54
2018-11-11T07:08:02.811Z,994.54
2018-11-11T07:09:02.760Z,994.56
2018-11-11T07:10:02.709Z,994.61
2018-11-11T07:11:02.658Z,994.64
2018-11-11T07:12:02.631Z,994.65
2018-11-11T07:13:02.554Z,994.71
2018-11-11T07:14:02.592Z,994.68
2018-11-11T07:15:02.450Z,994.69
2018-11-11T07:16:02.403Z,994.69
2018-11-11T07:17:02.381Z,994.67
2018-11-11T07:18:02.299Z,994.64
2018-11-11T07:19:02.247Z,994.58
2018-11-11T07:20:02.194Z,994.65
2018-11-11T07:21:02.143Z,994.65
2018-11-11T07:22:02.118Z,994.66
2018-11-11T07:23:02.041Z,994.62
2018-11-11T07:24:02.024Z,994.63
2018-11-11T07:25:01.940Z,994.67
2018-11-11T07:26:01.884Z,994.67
2018-11-11T07:27:01.857Z,994.68
2018-11-11T07:28:01.783Z,994.70
2018-11-11T07:29:01.733Z,994.72
2018-11-11T07:30:01.706Z,994.70
2018-11-11T07:31:01.632Z,994.67
2018-11-11T07:32:01.599Z,994.70
2018-11-11T07:33:01.575Z,994.69
2018-11-11T07:34:01.474Z,994.72
2018-11-11T07:35:01.425Z,994.77
2018-11-11T07:36:01.477Z,994.74
2018-11-11T07:37:01.372Z,994.77
2018-11-11T07:38:01.289Z,994.77
2018-11-11T07:39:01.230Z,994.78
2018-11-11T07:40:01.169Z,994.76
2018-11-11T07:41:01.117Z,994.73
2018-11-11T07:42:01.101Z,994.75
2018-11-11T07:43:01.016Z,994.70
2018-11-11T07:44:00.964Z,994.72
2018-11-11T07:45:00.916Z,994.72
2018-11-11T07:46:00.864Z,994.73
2018-11-11T07:47:00.833Z,994.70
2018-11-11T07:48:00.832Z,994.75
2018-11-11T07:49:00.714Z,994.72
2018-11-11T07:50:00.659Z,994.74
2018-11-11T07:51:00.606Z,994.73
2018-11-11T07:52:00.647Z,994.78
2018-11-11T07:53:00.514Z,994.80
2018-11-11T07:54:00.456Z,994.78
2018-11-11T07:55:00.489Z,994.82
2018-11-11T07:56:00.353Z,994.83
2018-11-11T07:57:00.340Z,994.80
2018-11-11T07:58:00.250Z,994.85
2018-11-11T07:59:00.198Z,994.85
2018-11-11T08:00:00.152Z,994.84
2018-11-11T08:01:00.101Z,994.83
2018-11-11T08:02:00.129Z,994.78
2018-11-11T08:02:59.997Z,994.79
2018-11-11T08:03:59.951Z,994.83
2018-11-11T08:04:59.893Z,994.78
2018-11-11T08:05:59.839Z,994.82
2018-11-11T08:06:59.792Z,994.84
2018-11-11T08:07:59.774Z,994.87
2018-11-11T08:08:59.687Z,994.89
2018-11-11T08:09:59.637Z,994.92
2018-11-11T08:10:59.607Z,994.92
2018-11-11T08:11:59.540Z,994.95
2018-11-11T08:12:59.508Z,994.97
2018-11-11T08:13:59.439Z,994.96
2018-11-11T08:14:59.386Z,995.05
2018-11-11T08:15:59.340Z,995.08
2018-11-11T08:16:59.287Z,995.10
2018-11-11T08:17:59.253Z,995.14
2018-11-11T08:18:59.183Z,995.15
2018-11-11T08:19:59.138Z,995.17
2018-11-11T08:20:59.078Z,995.18
2018-11-11T08:21:59.027Z,995.18
2018-11-11T08:22:59.005Z,995.19
2018-11-11T08:23:58.938Z,995.20
2018-11-11T08:24:58.876Z,995.19
2018-11-11T08:25:58.826Z,995.22
2018-11-11T08:26:58.780Z,995.20
2018-11-11T08:27:58.746Z,995.21
2018-11-11T08:28:58.674Z,995.22
2018-11-11T08:29:58.626Z,995.21
2018-11-11T08:30:58.573Z,995.18
2018-11-11T08:31:58.553Z,995.20
2018-11-11T08:32:58.493Z,995.23
2018-11-11T08:33:58.420Z,995.20
2018-11-11T08:34:58.375Z,995.24
2018-11-11T08:35:58.318Z,995.21
2018-11-11T08:36:58.265Z,995.23
2018-11-11T08:37:58.238Z,995.27
2018-11-11T08:38:58.163Z,995.23
2018-11-11T08:39:58.110Z,995.24
2018-11-11T08:40:58.066Z,995.30
2018-11-11T08:41:58.009Z,995.34
2018-11-11T08:42:57.982Z,995.34
2018-11-11T08:43:57.911Z,995.41
2018-11-11T08:44:57.861Z,995.41
2018-11-11T08:45:57.809Z,995.38
2018-11-11T08:46:57.754Z,995.41
2018-11-11T08:47:57.754Z,995.42
2018-11-11T08:48:57.659Z,995.40
2018-11-11T08:49:57.605Z,995.44
2018-11-11T08:50:57.552Z,995.40
2018-11-11T08:51:57.502Z,995.47
2018-11-11T08:52:57.476Z,995.44
2018-11-11T08:53:57.399Z,995.44
2018-11-11T08:54:57.352Z,995.43
2018-11-11T08:55:57.297Z,995.42
2018-11-11T08:56:57.254Z,995.48
2018-11-11T08:57:57.267Z,995.51
2018-11-11T08:58:57.142Z,995.46
2018-11-11T08:59:57.096Z,995.46
2018-11-11T09:00:57.045Z,995.52
2018-11-11T09:01:57.008Z,995.49
2018-11-11T09:02:57.327Z,995.54
2018-11-11T09:03:56.906Z,995.51
2018-11-11T09:04:56.862Z,995.51
2018-11-11T09:05:56.791Z,995.54
2018-11-11T09:06:56.741Z,995.50
2018-11-11T09:07:56.714Z,995.55
2018-11-11T09:08:56.639Z,995.54
2018-11-11T09:09:56.590Z,995.60
2018-11-11T09:10:56.533Z,995.61
2018-11-11T09:11:56.486Z,995.57
2018-11-11T09:12:56.459Z,995.61
2018-11-11T09:13:56.383Z,995.63
2018-11-11T09:14:56.333Z,995.59
2018-11-11T09:15:56.285Z,995.61
2018-11-11T09:16:56.236Z,995.67
2018-11-11T09:17:56.207Z,995.65
2018-11-11T09:18:56.131Z,995.62
2018-11-11T09:19:56.082Z,995.60
2018-11-11T09:20:56.027Z,995.58
2018-11-11T09:21:55.976Z,995.61
2018-11-11T09:22:55.955Z,995.69
2018-11-11T09:23:55.965Z,995.66
2018-11-11T09:24:55.827Z,995.70
2018-11-11T09:25:55.780Z,995.70
2018-11-11T09:26:55.724Z,995.73
2018-11-11T09:27:55.706Z,995.65
2018-11-11T09:28:55.627Z,995.65
2018-11-11T09:29:55.576Z,995.65
2018-11-11T09:30:55.521Z,995.65
2018-11-11T09:31:55.473Z,995.63
2018-11-11T09:32:55.423Z,995.68
2018-11-11T09:33:55.401Z,995.68
2018-11-11T09:34:55.315Z,995.62
2018-11-11T09:35:55.272Z,995.69
2018-11-11T09:36:55.220Z,995.62
2018-11-11T09:37:55.174Z,995.65
2018-11-11T09:38:55.184Z,995.57
2018-11-11T09:39:55.067Z,995.62
2018-11-11T09:40:55.018Z,995.67
2018-11-11T09:41:54.972Z,995.68
2018-11-11T09:42:54.916Z,995.72
2018-11-11T09:43:54.887Z,995.74
2018-11-11T09:44:54.821Z,995.73
2018-11-11T09:45:54.764Z,995.74
2018-11-11T09:46:54.720Z,995.80
2018-11-11T09:47:54.688Z,995.82
2018-11-11T09:48:54.640Z,995.82
2018-11-11T09:49:54.560Z,995.81
2018-11-11T09:50:54.513Z,995.80
2018-11-11T09:51:54.464Z,995.84
2018-11-11T09:52:54.413Z,995.82
2018-11-11T09:53:54.464Z,995.87
2018-11-11T09:54:54.320Z,995.78
2018-11-11T09:55:54.268Z,995.86
2018-11-11T09:56:54.237Z,995.83
2018-11-11T09:57:54.159Z,995.78
2018-11-11T09:58:54.138Z,995.83
2018-11-11T09:59:54.144Z,995.90
2018-11-11T10:00:54.011Z,995.88
2018-11-11T10:01:53.960Z,995.86
2018-11-11T10:02:53.914Z,995.83
2018-11-11T10:03:53.880Z,995.83
2018-11-11T10:04:53.871Z,995.90
2018-11-11T10:05:53.757Z,995.81
2018-11-11T10:06:53.749Z,995.84
2018-11-11T10:07:53.659Z,995.92
2018-11-11T10:08:53.636Z,995.93
2018-11-11T10:09:53.557Z,995.90
2018-11-11T10:10:53.508Z,995.89
2018-11-11T10:11:53.460Z,995.93
2018-11-11T10:12:53.445Z,995.88
2018-11-11T10:13:53.389Z,995.83
2018-11-11T10:14:53.306Z,995.76
2018-11-11T10:15:53.267Z,995.80
2018-11-11T10:16:53.208Z,995.79
2018-11-11T10:17:53.157Z,995.76
2018-11-11T10:18:53.133Z,995.77
2018-11-11T10:19:53.061Z,995.78
2018-11-11T10:20:53.040Z,995.77
2018-11-11T10:21:52.960Z,995.85
2018-11-11T10:22:52.910Z,995.81
2018-11-11T10:23:52.883Z,995.83
2018-11-11T10:24:52.858Z,995.79
2018-11-11T10:25:52.759Z,995.84
2018-11-11T10:26:52.717Z,995.77
2018-11-11T10:27:52.660Z,995.81
2018-11-11T10:28:52.634Z,995.87
2018-11-11T10:29:52.559Z,995.85
2018-11-11T10:30:52.510Z,995.81
2018-11-11T10:31:52.459Z,995.83
2018-11-11T10:32:52.411Z,995.81
2018-11-11T10:33:52.391Z,995.83
2018-11-11T10:34:52.313Z,995.84
2018-11-11T10:35:52.273Z,995.81
2018-11-11T10:36:52.214Z,995.77
2018-11-11T10:37:52.160Z,995.75
2018-11-11T10:38:52.135Z,995.74
2018-11-11T10:39:52.064Z,995.75
2018-11-11T10:40:52.014Z,995.63
2018-11-11T10:41:51.962Z,995.67
2018-11-11T10:42:51.925Z,995.59
2018-11-11T10:43:51.897Z,995.60
2018-11-11T10:44:51.816Z,995.57
2018-11-11T10:45:51.766Z,995.61
2018-11-11T10:46:51.717Z,995.59
2018-11-11T10:47:51.666Z,995.63
2018-11-11T10:48:51.618Z,995.60
2018-11-11T10:49:51.593Z,995.61
2018-11-11T10:50:51.517Z,995.60
2018-11-11T10:51:51.467Z,995.66
2018-11-11T10:52:51.418Z,995.69
2018-11-11T10:53:51.364Z,995.69
2018-11-11T10:54:51.348Z,995.71
2018-11-11T10:55:51.265Z,995.74
2018-11-11T10:56:51.220Z,995.69
2018-11-11T10:57:51.167Z,995.70
2018-11-11T10:58:51.116Z,995.74
2018-11-11T10:59:51.090Z,995.71
2018-11-11T11:00:51.018Z,995.78
2018-11-11T11:01:50.974Z,995.73
2018-11-11T11:02:50.919Z,995.67
2018-11-11T11:03:50.870Z,995.73
2018-11-11T11:04:50.845Z,995.68
2018-11-11T11:05:50.789Z,995.76
2018-11-11T11:06:50.723Z,995.78
2018-11-11T11:07:50.672Z,995.77
2018-11-11T11:08:50.632Z,995.74
2018-11-11T11:09:50.594Z,995.72
2018-11-11T11:10:50.531Z,995.75
2018-11-11T11:11:50.474Z,995.74
2018-11-11T11:12:50.425Z,995.72
2018-11-11T11:13:50.385Z,995.76
2018-11-11T11:14:50.351Z,995.72
2018-11-11T11:15:50.274Z,995.72
2018-11-11T11:16:50.223Z,995.73
2018-11-11T11:17:50.185Z,995.79
2018-11-11T11:18:50.125Z,995.81
2018-11-11T11:19:50.105Z,995.81
2018-11-11T11:20:50.028Z,995.82
2018-11-11T11:21:49.978Z,995.79
2018-11-11T11:22:49.982Z,995.87
2018-11-11T11:23:49.878Z,995.83
2018-11-11T11:24:49.852Z,995.87
2018-11-11T11:25:49.857Z,995.86
2018-11-11T11:26:49.732Z,995.84
2018-11-11T11:27:49.677Z,995.97
2018-11-11T11:28:49.632Z,995.95
2018-11-11T11:29:49.604Z,995.96
2018-11-11T11:30:49.531Z,996.05
2018-11-11T11:31:49.509Z,996.06
2018-11-11T11:32:49.431Z,996.11
2018-11-11T11:33:49.383Z,996.11
2018-11-11T11:34:49.375Z,996.18
2018-11-11T11:35:49.335Z,996.17
2018-11-11T11:36:49.231Z,996.25
2018-11-11T11:37:49.183Z,996.22
2018-11-11T11:38:49.134Z,996.27
2018-11-11T11:39:49.119Z,996.26
2018-11-11T11:40:49.035Z,996.30
2018-11-11T11:41:48.986Z,996.28
2018-11-11T11:42:48.942Z,996.32
2018-11-11T11:43:48.925Z,996.33
2018-11-11T11:44:48.844Z,996.39
2018-11-11T11:45:48.812Z,996.38
2018-11-11T11:46:48.736Z,996.44
2018-11-11T11:47:48.688Z,996.42
2018-11-11T11:48:48.640Z,996.42
2018-11-11T11:49:48.596Z,996.40
2018-11-11T11:50:48.588Z,996.44
2018-11-11T11:51:48.513Z,996.43
2018-11-11T11:52:48.474Z,996.40
2018-11-11T11:53:48.389Z,996.53
2018-11-11T11:54:48.339Z,996.52
2018-11-11T11:55:48.314Z,996.48
2018-11-11T11:56:48.240Z,996.54
2018-11-11T11:57:48.195Z,996.50
2018-11-11T11:58:48.144Z,996.57
2018-11-11T11:59:48.094Z,996.50
2018-11-11T12:00:48.065Z,996.53
2018-11-11T12:01:47.994Z,996.52
2018-11-11T12:02:47.946Z,996.56
2018-11-11T12:03:47.892Z,996.65
2018-11-11T12:04:47.846Z,996.56
2018-11-11T12:05:47.827Z,996.66
2018-11-11T12:06:47.745Z,996.63
2018-11-11T12:07:47.701Z,996.60
2018-11-11T12:08:47.787Z,996.60
2018-11-11T12:09:47.596Z,996.67
2018-11-11T12:10:47.569Z,996.63
2018-11-11T12:11:47.504Z,996.65
2018-11-11T12:12:47.448Z,996.68
2018-11-11T12:13:47.398Z,996.72
2018-11-11T12:14:47.351Z,996.75
2018-11-11T12:15:47.322Z,996.75
2018-11-11T12:16:47.347Z,996.77
2018-11-11T12:17:47.199Z,996.74
2018-11-11T12:18:47.150Z,996.77
2018-11-11T12:19:47.099Z,996.81
2018-11-11T12:20:47.075Z,996.88
2018-11-11T12:21:46.999Z,996.81
2018-11-11T12:22:46.955Z,996.81
2018-11-11T12:23:46.898Z,996.79
2018-11-11T12:24:46.847Z,996.79
2018-11-11T12:25:46.845Z,996.84
2018-11-11T12:26:46.754Z,996.81
2018-11-11T12:27:46.704Z,996.84
2018-11-11T12:28:46.654Z,996.86